TimeCST,TemperatureF,Dew PointF,Humidity,Sea Level PressureIn,VisibilityMPH,Wind Direction,Wind SpeedMPH,Gust SpeedMPH,PrecipitationIn,Events,Conditions,WindDirDegrees,DateUTC
12:15 AM,35.6,19.4,52,30.26,10.0,North,9.2,-,N/A,,Clear,10,2013-01-20 06:15:00
12:35 AM,35.6,21.2,56,30.26,10.0,NNE,10.4,-,N/A,,Clear,30,2013-01-20 06:35:00
12:55 AM,37.4,23.0,56,30.27,10.0,NE,8.1,-,N/A,,Clear,40,2013-01-20 06:55:00
1:15 AM,39.2,23.0,52,30.27,10.0,NE,9.2,-,N/A,,Clear,40,2013-01-20 07:15:00
1:35 AM,37.4,23.0,56,30.27,10.0,NE,11.5,-,N/A,,Clear,50,2013-01-20 07:35:00
1:55 AM,37.4,23.0,56,30.27,10.0,NE,9.2,-,N/A,,Clear,50,2013-01-20 07:55:00
2:15 AM,35.6,23.0,60,30.28,10.0,ENE,6.9,-,N/A,,Clear,60,2013-01-20 08:15:00
2:35 AM,32.0,21.2,64,30.28,10.0,ENE,5.8,-,N/A,,Clear,70,2013-01-20 08:35:00
2:55 AM,33.8,23.0,65,30.28,10.0,ENE,8.1,-,N/A,,Clear,60,2013-01-20 08:55:00
3:15 AM,32.0,21.2,64,30.28,10.0,ENE,8.1,-,N/A,,Clear,60,2013-01-20 09:15:00
3:35 AM,32.0,23.0,69,30.28,10.0,ENE,10.4,-,N/A,,Clear,60,2013-01-20 09:35:00
3:55 AM,30.2,23.0,75,30.28,10.0,ENE,6.9,-,N/A,,Clear,70,2013-01-20 09:55:00
4:15 AM,30.2,21.2,69,30.28,10.0,ENE,6.9,-,N/A,,Clear,70,2013-01-20 10:15:00
4:35 AM,28.4,21.2,74,30.26,10.0,East,6.9,-,N/A,,Clear,80,2013-01-20 10:35:00
4:55 AM,28.4,21.2,74,30.25,10.0,East,6.9,-,N/A,,Clear,80,2013-01-20 10:55:00
5:15 AM,28.4,21.2,74,30.25,10.0,East,6.9,-,N/A,,Clear,80,2013-01-20 11:15:00
5:35 AM,28.4,21.2,74,30.25,10.0,East,8.1,-,N/A,,Clear,80,2013-01-20 11:35:00
5:55 AM,26.6,21.2,80,30.26,10.0,ENE,6.9,-,N/A,,Clear,70,2013-01-20 11:55:00
6:15 AM,26.6,19.4,74,30.26,10.0,East,5.8,-,N/A,,Clear,80,2013-01-20 12:15:00
6:35 AM,26.6,19.4,74,30.26,10.0,ENE,4.6,-,N/A,,Clear,70,2013-01-20 12:35:00
6:55 AM,24.8,19.4,80,30.27,10.0,East,3.5,-,N/A,,Clear,80,2013-01-20 12:55:00
7:15 AM,24.8,19.4,80,30.27,10.0,East,4.6,-,N/A,,Clear,80,2013-01-20 13:15:00
7:35 AM,24.8,17.6,74,30.26,10.0,East,6.9,-,N/A,,Clear,90,2013-01-20 13:35:00
7:55 AM,24.8,17.6,74,30.25,10.0,East,9.2,-,N/A,,Clear,100,2013-01-20 13:55:00
8:15 AM,26.6,19.4,74,30.24,10.0,ESE,10.4,-,N/A,,Clear,110,2013-01-20 14:15:00
8:35 AM,28.4,19.4,69,30.24,10.0,East,10.4,-,N/A,,Clear,100,2013-01-20 14:35:00
8:55 AM,28.4,19.4,69,30.24,10.0,ESE,10.4,-,N/A,,Clear,110,2013-01-20 14:55:00
9:15 AM,28.4,19.4,69,30.25,10.0,ESE,11.5,-,N/A,,Clear,110,2013-01-20 15:15:00
9:35 AM,30.2,21.2,69,30.25,10.0,ESE,10.4,-,N/A,,Clear,110,2013-01-20 15:35:00
9:55 AM,32.0,19.4,60,30.26,10.0,ESE,10.4,-,N/A,,Clear,120,2013-01-20 15:55:00
10:15 AM,33.8,19.4,56,30.27,10.0,ESE,11.5,-,N/A,,Clear,120,2013-01-20 16:15:00
10:35 AM,35.6,19.4,52,30.28,10.0,SE,9.2,-,N/A,,Clear,130,2013-01-20 16:35:00
10:55 AM,35.6,19.4,52,30.29,10.0,ESE,6.9,-,N/A,,Clear,110,2013-01-20 16:55:00
11:15 AM,37.4,19.4,48,30.28,10.0,SE,4.6,-,N/A,,Clear,130,2013-01-20 17:15:00
11:35 AM,37.4,21.2,52,30.27,10.0,ESE,6.9,-,N/A,,Clear,120,2013-01-20 17:35:00
11:55 AM,37.4,21.2,52,30.26,10.0,SE,6.9,-,N/A,,Clear,140,2013-01-20 17:55:00
12:15 PM,39.2,23.0,52,30.25,10.0,SSE,5.8,-,N/A,,Clear,150,2013-01-20 18:15:00
12:35 PM,39.2,21.2,49,30.25,10.0,Calm,Calm,-,N/A,,Clear,0,2013-01-20 18:35:00
12:55 PM,41.0,23.0,49,30.24,10.0,NE,4.6,-,N/A,,Clear,50,2013-01-20 18:55:00
1:15 PM,42.8,24.8,49,30.22,10.0,Calm,Calm,-,N/A,,Clear,0,2013-01-20 19:15:00
1:35 PM,42.8,24.8,49,30.21,10.0,NNE,5.8,-,N/A,,Clear,30,2013-01-20 19:35:00
1:55 PM,44.6,24.8,46,30.20,10.0,ESE,4.6,-,N/A,,Clear,120,2013-01-20 19:55:00
2:15 PM,44.6,24.8,46,30.22,10.0,NNW,3.5,-,N/A,,Clear,340,2013-01-20 20:15:00
2:35 PM,44.6,24.8,46,30.22,10.0,NNE,9.2,-,N/A,,Clear,20,2013-01-20 20:35:00
2:55 PM,46.4,24.8,43,30.22,10.0,NNW,4.6,-,N/A,,Clear,340,2013-01-20 20:55:00
3:15 PM,46.4,24.8,43,30.23,10.0,NNE,11.5,-,N/A,,Clear,30,2013-01-20 21:15:00
3:35 PM,46.4,23.0,40,30.22,10.0,North,15.0,-,N/A,,Clear,10,2013-01-20 21:35:00
3:55 PM,46.4,23.0,40,30.23,10.0,NNE,11.5,-,N/A,,Clear,20,2013-01-20 21:55:00
4:15 PM,46.4,23.0,40,30.24,10.0,North,13.8,-,N/A,,Clear,10,2013-01-20 22:15:00
4:35 PM,42.8,17.6,36,30.25,10.0,North,21.9,26.5,N/A,,Clear,10,2013-01-20 22:35:00
4:55 PM,37.4,12.2,36,30.26,10.0,NNE,23.0,27.6,N/A,,Clear,20,2013-01-20 22:55:00
5:15 PM,33.8,12.2,41,30.26,10.0,NNE,19.6,25.3,N/A,,Clear,30,2013-01-20 23:15:00
5:35 PM,33.8,10.4,38,30.27,10.0,NNE,17.3,26.5,N/A,,Clear,20,2013-01-20 23:35:00
5:55 PM,30.2,10.4,44,30.27,10.0,NNE,13.8,-,N/A,,Clear,30,2013-01-20 23:55:00
6:15 PM,30.2,10.4,44,30.28,10.0,NNE,13.8,-,N/A,,Clear,30,2013-01-21 00:15:00
6:35 PM,30.2,10.4,44,30.30,10.0,NNE,18.4,25.3,N/A,,Clear,20,2013-01-21 00:35:00
6:55 PM,28.4,8.6,43,30.31,10.0,NNE,17.3,23.0,N/A,,Clear,30,2013-01-21 00:55:00
7:15 PM,28.4,8.6,43,30.32,10.0,NNE,15.0,23.0,N/A,,Clear,30,2013-01-21 01:15:00
7:35 PM,28.4,8.6,43,30.33,10.0,NNE,20.7,26.5,N/A,,Clear,30,2013-01-21 01:35:00
7:55 PM,26.6,8.6,47,30.34,10.0,NNE,18.4,26.5,N/A,,Clear,30,2013-01-21 01:55:00
8:15 PM,26.6,8.6,47,30.34,10.0,NNE,18.4,25.3,N/A,,Clear,30,2013-01-21 02:15:00
8:35 PM,26.6,8.6,47,30.35,10.0,NNE,17.3,25.3,N/A,,Clear,30,2013-01-21 02:35:00
8:55 PM,26.6,8.6,47,30.35,10.0,NE,13.8,-,N/A,,Clear,40,2013-01-21 02:55:00
9:15 PM,24.8,6.8,46,30.36,10.0,NE,11.5,-,N/A,,Clear,40,2013-01-21 03:15:00
9:35 PM,24.8,6.8,46,30.37,10.0,NE,10.4,-,N/A,,Clear,40,2013-01-21 03:35:00
9:55 PM,24.8,6.8,46,30.38,10.0,NE,9.2,-,N/A,,Clear,40,2013-01-21 03:55:00
10:15 PM,24.8,6.8,46,30.38,10.0,NE,9.2,-,N/A,,Clear,40,2013-01-21 04:15:00
10:35 PM,24.8,6.8,46,30.38,10.0,NE,9.2,-,N/A,,Clear,50,2013-01-21 04:35:00
10:55 PM,23.0,6.8,50,30.39,10.0,NNE,9.2,-,N/A,,Clear,30,2013-01-21 04:55:00
11:15 PM,23.0,6.8,50,30.39,10.0,NNE,8.1,-,N/A,,Clear,30,2013-01-21 05:15:00
11:35 PM,21.2,6.8,54,30.40,10.0,NNE,9.2,-,N/A,,Clear,20,2013-01-21 05:35:00
11:55 PM,21.2,6.8,54,30.39,10.0,NNE,9.2,-,N/A,,Clear,30,2013-01-21 05:55:00